CheckWX is a tool to help pilots better visualize weather data.  It is not intended as a substitute for an official pre-flight weather briefing.

08:52:23 UTC

KJBR METAR
Jonesboro Municipal Airport
Jonesboro, Arkansas, USA
Current

59 mins ago

KJBR 190753Z AUTO 16009KT 10SM FEW120 19/17 A2975 RMK AO2 SLP072 T01890172 PWINO $
Observed
May-19 @ 07:53 UTC
Wind
  • 160° at 9 KTS
Visibility
10 SM
Flight Rules
VFR
Cloud Levels
  • Few at 12,000' AGL
Temperature
19°C / 66°F
Dewpoint
17°C / 63°F
Humidity
88%
Altimeter
29.75" Hg
Pressure
1007.42 hPa
Previous

2 hours ago

KJBR 190653Z AUTO 17008KT 10SM CLR 19/17 A2976 RMK AO2 SLP074 T01890172 PWINO $
Observed
May-19 @ 06:53 UTC
Wind
  • 170° at 8 KTS
Visibility
10 SM
Flight Rules
VFR
Cloud Levels
  • Clear skies
Temperature
19°C / 66°F
Dewpoint
17°C / 63°F
Humidity
88%
Altimeter
29.76" Hg
Pressure
1007.82 hPa
Previous

3 hours ago

KJBR 190553Z AUTO 18008KT 10SM BKN110 19/17 A2978 RMK AO2 SLP081 T01890172 10244 20183 403110183 55036 PWINO $
Observed
May-19 @ 05:53 UTC
Wind
  • 180° at 8 KTS
Visibility
10 SM
Flight Rules
VFR
Cloud Levels
  • Broken at 11,000' AGL
Temperature
19°C / 66°F
Dewpoint
17°C / 63°F
Humidity
88%
Altimeter
29.78" Hg
Pressure
1008.42 hPa